Van Wert, Pennsylvania
Current Conditions -  °F | °C
As of 12:53 PM on Sunday 21 Dec 2014 (Local Time) from KSEG Reporting Station
Overcast Overcast  
Wind Chill: 29°   Ceiling: 2500
Heat Index: 33°   Visibility: 10mi
Dew Point: 22°   Wind: 5mph
Humidity: 64%   Direction: 360°N
Pressure: 30.32"   Gusts: NA
Location:  40.5853°N, 77.3611°W
Report Text: KSEG 211753Z AUTO 36004KT 10SM OVC025 01/M06 A3032 RMK AO2 SLP272 T00061056 10006 21006 58010
Loading
Personal Weather Stations






























Interactive Weather Map New forecast layout! Learn more

10-Day Weather Forecast

Advertisements
Track Severe Weather on mobile